Time;durP1;ratioP1;P1;durP2;ratioP2;P2;SDS_P1;SDS_P2;PMS_P1;PMS_P2;Temp;Humidity;BMP_temperature;BMP_pressure;BME280_temperature;BME280_humidity;BME280_pressure;Samples;Min_cycle;Max_cycle;Signal;HPM_P1;HPM_P2
2022/08/06 00:03:50;;;;;;;3.70;1.58;;;;;;;-147.53;100.00;57128.34;10232815;28;20458;-91
2022/08/06 00:08:52;;;;;;;6.18;1.40;;;;;;;-147.53;100.00;57128.34;10290092;28;20041;-90
2022/08/06 00:13:56;;;;;;;3.58;1.67;;;;;;;-147.53;100.00;57128.34;10262136;28;20050;-91
2022/08/06 00:19:02;;;;;;;4.10;1.58;;;;;;;-147.53;100.00;57128.34;10250359;28;20154;-90
2022/08/06 00:24:11;;;;;;;5.05;1.60;;;;;;;-147.53;100.00;57128.34;10265804;28;20042;-90
2022/08/06 00:29:29;;;;;;;3.90;1.60;;;;;;;-147.53;100.00;57128.34;10285860;28;20034;-90
2022/08/06 00:34:44;;;;;;;6.30;1.50;;;;;;;-147.53;100.00;57128.34;10282139;28;20039;-90
2022/08/06 00:39:48;;;;;;;5.80;1.50;;;;;;;-147.53;100.00;57128.34;10258796;28;20513;-89
2022/08/06 00:44:50;;;;;;;2.17;1.35;;;;;;;-147.53;100.00;57128.34;10269565;28;20130;-92
2022/08/06 00:49:52;;;;;;;5.03;1.60;;;;;;;-147.53;100.00;57128.34;10265788;28;20054;-89
2022/08/06 00:54:55;;;;;;;3.22;1.60;;;;;;;-147.53;100.00;57128.34;10287816;28;20586;-90
2022/08/06 00:59:59;;;;;;;4.15;1.40;;;;;;;-147.53;100.00;57128.34;10252674;28;20042;-90
2022/08/06 01:05:02;;;;;;;2.75;1.50;;;;;;;-147.53;100.00;57128.34;10262400;28;20047;-90
2022/08/06 01:10:24;;;;;;;4.05;1.60;;;;;;;-147.53;100.00;57128.34;10270202;28;20054;-90
2022/08/06 01:15:51;;;;;;;4.97;1.80;;;;;;;-147.53;100.00;57128.34;10266577;28;20519;-91
2022/08/06 01:21:17;;;;;;;6.35;2.17;;;;;;;-147.53;100.00;57128.34;10262210;28;20065;-90
2022/08/06 01:27:16;;;;;;;7.27;1.87;;;;;;;-147.53;100.00;57128.34;10288545;28;20046;-90
2022/08/06 01:38:13;;;;;;;7.18;2.17;;;;;;;-147.53;100.00;57128.34;10550140;23;20582;-91
2022/08/06 01:43:29;;;;;;;3.00;1.80;;;;;;;-147.53;100.00;57128.34;10125955;29;20057;-91
2022/08/06 01:48:51;;;;;;;5.53;2.20;;;;;;;-147.53;100.00;57128.34;10078177;29;20097;-87
2022/08/06 01:54:22;;;;;;;4.90;2.00;;;;;;;-147.53;100.00;57128.34;10083594;29;20152;-87
2022/08/06 02:00:21;;;;;;;5.97;2.20;;;;;;;-147.53;100.00;57128.34;10091328;29;20294;-87
2022/08/06 02:05:34;;;;;;;7.88;2.20;;;;;;;-147.53;100.00;57128.34;10086100;29;20048;-87
2022/08/06 02:11:04;;;;;;;3.88;2.20;;;;;;;-147.53;100.00;57128.34;10085280;29;20716;-87
2022/08/06 02:16:41;;;;;;;7.55;2.22;;;;;;;-147.53;100.00;57128.34;10086890;29;20049;-87
2022/08/06 02:22:03;;;;;;;9.18;2.42;;;;;;;-147.53;100.00;57128.34;10090248;29;19931;-86
2022/08/06 02:27:38;;;;;;;7.53;2.55;;;;;;;-147.53;100.00;57128.34;10087244;29;20041;-87
2022/08/06 02:32:59;;;;;;;5.80;2.55;;;;;;;-147.53;100.00;57128.34;10084326;29;20184;-88
2022/08/06 02:38:50;;;;;;;6.22;2.30;;;;;;;-147.53;100.00;57128.34;10085194;29;20116;-88
2022/08/06 02:44:21;;;;;;;5.00;2.70;;;;;;;-147.53;100.00;57128.34;10089550;29;20080;-88
2022/08/06 02:49:49;;;;;;;4.65;2.40;;;;;;;-147.53;100.00;57128.34;10071218;29;20085;-88
2022/08/06 02:55:19;;;;;;;5.60;2.67;;;;;;;-147.53;100.00;57128.34;10088073;29;20132;-88
2022/08/06 03:00:45;;;;;;;5.68;2.60;;;;;;;-147.53;100.00;57128.34;10086215;29;20100;-90
2022/08/06 03:06:13;;;;;;;5.50;2.05;;;;;;;-147.53;100.00;57128.34;10077939;29;20101;-87
2022/08/06 03:11:47;;;;;;;;;;;;;;;;;;;;;
2022/08/06 03:17:18;;;;;;;6.78;2.75;;;;;;;-147.53;100.00;57128.34;10080480;29;20590;-87
2022/08/06 03:22:37;;;;;;;4.88;2.53;;;;;;;-147.53;100.00;57128.34;10098062;29;20065;-87
2022/08/06 03:27:57;;;;;;;4.90;2.42;;;;;;;-147.53;100.00;57128.34;10085917;29;20041;-86
2022/08/06 03:33:12;;;;;;;7.10;2.80;;;;;;;-147.53;100.00;57128.34;10072862;29;20057;-87
2022/08/06 03:38:47;;;;;;;6.40;3.08;;;;;;;-147.53;100.00;57128.34;10067904;29;20538;-86
2022/08/06 03:44:04;;;;;;;7.35;3.00;;;;;;;-147.53;100.00;57128.34;10084930;29;20073;-87
2022/08/06 03:49:23;;;;;;;6.15;2.92;;;;;;;-147.53;100.00;57128.34;10081483;29;20538;-87
2022/08/06 03:54:58;;;;;;;8.73;3.25;;;;;;;-147.53;100.00;57128.34;10087313;29;20445;-86
2022/08/06 04:06:24;;;;;;;7.07;3.50;;;;;;;-147.53;100.00;57128.34;10088599;29;20534;-85
2022/08/06 04:11:43;;;;;;;5.38;2.97;;;;;;;-147.53;100.00;57128.34;10073749;29;20049;-87
2022/08/06 04:17:37;;;;;;;7.43;2.78;;;;;;;-147.53;100.00;57128.34;10081197;29;20076;-88
2022/08/06 04:23:12;;;;;;;13.95;3.78;;;;;;;-147.53;100.00;57128.34;10095163;29;20540;-86
2022/08/06 04:28:48;;;;;;;8.07;3.38;;;;;;;-147.53;100.00;57128.34;10103658;29;20049;-86
2022/08/06 04:34:26;;;;;;;8.93;2.88;;;;;;;-147.53;100.00;57128.34;10077877;29;20049;-87
2022/08/06 04:39:47;;;;;;;9.55;4.20;;;;;;;-147.53;100.00;57128.34;10071596;29;20132;-88
2022/08/06 04:44:53;;;;;;;6.28;3.13;;;;;;;-147.53;100.00;57128.34;10088861;29;20052;-87
2022/08/06 04:50:04;;;;;;;7.38;3.10;;;;;;;-147.53;100.00;57128.34;10086410;29;20052;-87
2022/08/06 04:55:14;;;;;;;5.95;3.05;;;;;;;-147.53;100.00;57128.34;10085644;29;20442;-87
2022/08/06 05:00:37;;;;;;;7.97;3.42;;;;;;;-147.53;100.00;57128.34;10087552;29;20056;-87
2022/08/06 05:06:46;;;;;;;7.30;3.17;;;;;;;-147.53;100.00;57128.34;10082800;29;20049;-87
2022/08/06 05:12:09;;;;;;;5.55;3.05;;;;;;;-147.53;100.00;57128.34;10074006;29;20152;-84
2022/08/06 05:17:58;;;;;;;8.95;3.67;;;;;;;-147.53;100.00;57128.34;10083783;29;20053;-87
2022/08/06 05:23:53;;;;;;;5.72;3.08;;;;;;;-147.53;100.00;57128.34;10086259;29;20506;-87
2022/08/06 05:29:52;;;;;;;6.03;3.33;;;;;;;-147.53;100.00;57128.34;10076784;29;20511;-87
2022/08/06 05:35:22;;;;;;;5.53;2.85;;;;;;;-147.53;100.00;57128.34;10098624;29;20049;-86
2022/08/06 05:47:42;;;;;;;5.13;2.83;;;;;;;-147.53;100.00;57128.34;10066487;29;20052;-87
2022/08/06 05:53:29;;;;;;;5.32;2.70;;;;;;;-147.53;100.00;57128.34;10111964;29;20055;-88
2022/08/06 05:59:58;;;;;;;3.80;2.42;;;;;;;-147.53;100.00;57128.34;10000599;29;20221;-87
2022/08/06 06:11:57;;;;;;;5.00;2.50;;;;;;;-147.53;100.00;57128.34;10022948;29;20046;-86
2022/08/06 06:17:41;;;;;;;4.97;1.90;;;;;;;-147.53;100.00;57128.34;9988493;29;20195;-87
2022/08/06 06:23:15;;;;;;;4.97;1.88;;;;;;;-147.53;100.00;57128.34;10007803;29;20093;-87
2022/08/06 06:28:40;;;;;;;3.80;1.80;;;;;;;-147.53;100.00;57128.34;10018303;29;20098;-85
2022/08/06 06:34:26;;;;;;;3.88;1.73;;;;;;;-147.53;100.00;57128.34;10002067;29;20038;-85
2022/08/06 06:39:55;;;;;;;7.53;1.73;;;;;;;-147.53;100.00;57128.34;10002242;29;20117;-86
2022/08/06 06:45:51;;;;;;;7.15;1.50;;;;;;;-147.53;100.00;57128.34;10003120;29;20912;-87
2022/08/06 06:52:05;;;;;;;4.93;1.58;;;;;;;-147.53;100.00;57128.34;10007732;29;20566;-87
2022/08/06 07:04:12;;;;;;;1.42;0.80;;;;;;;-147.53;100.00;57128.34;10009106;29;20061;-86
2022/08/06 07:09:27;;;;;;;2.10;0.80;;;;;;;-147.53;100.00;57128.34;10015930;29;20061;-86
2022/08/06 07:15:01;;;;;;;2.08;0.80;;;;;;;-147.53;100.00;57128.34;9998828;29;20050;-86
2022/08/06 07:20:37;;;;;;;2.42;0.80;;;;;;;-147.53;100.00;57128.34;9990027;29;20148;-87
2022/08/06 07:25:48;;;;;;;4.70;0.70;;;;;;;-147.53;100.00;57128.34;9996148;29;20046;-86
2022/08/06 07:31:02;;;;;;;3.20;0.60;;;;;;;-147.53;100.00;57128.34;9990323;29;20046;-87
2022/08/06 07:56:22;;;;;;;;;;;;;;;;;;;;;
2022/08/06 08:08:34;;;;;;;0.43;0.35;;;;;;;-147.53;100.00;57128.34;9921594;29;20046;-87
2022/08/06 08:20:57;;;;;;;2.95;0.52;;;;;;;-147.53;100.00;57128.34;9944728;29;20567;-87
2022/08/06 08:26:36;;;;;;;0.50;0.50;;;;;;;-147.53;100.00;57128.34;9895696;29;20073;-88
2022/08/06 08:32:40;;;;;;;1.30;0.40;;;;;;;-147.53;100.00;57128.34;9884041;29;20138;-87
2022/08/06 08:38:00;;;;;;;3.25;0.60;;;;;;;-147.53;100.00;57128.34;9886847;29;20058;-86
2022/08/06 08:43:38;;;;;;;1.17;0.55;;;;;;;-147.53;100.00;57128.34;9916797;29;20503;-86
2022/08/06 08:49:40;;;;;;;1.00;0.38;;;;;;;-147.53;100.00;57128.34;9900515;29;20700;-86
2022/08/06 08:55:16;;;;;;;1.60;0.50;;;;;;;-147.53;100.00;57128.34;9920120;29;20055;-88
2022/08/06 09:01:18;;;;;;;3.63;0.57;;;;;;;-147.53;100.00;57128.34;9907433;29;20106;-87
2022/08/06 09:07:30;;;;;;;;;;;;;;;;;;;;;
2022/08/06 09:13:09;;;;;;;4.30;0.50;;;;;;;-147.53;100.00;57128.34;9898021;29;20062;-87
2022/08/06 09:18:33;;;;;;;2.53;0.40;;;;;;;-147.53;100.00;57128.34;9887954;29;21112;-87
2022/08/06 09:24:01;;;;;;;;;;;;;;;;;;;;;
2022/08/06 09:29:58;;;;;;;0.77;0.20;;;;;;;-147.53;100.00;57128.34;10015738;29;19934;-87
2022/08/06 09:35:44;;;;;;;2.55;0.80;;;;;;;-147.53;100.00;57128.34;9999530;29;20129;-86
2022/08/06 09:41:15;;;;;;;0.82;0.43;;;;;;;-147.53;100.00;57128.34;9977091;29;20042;-85
2022/08/06 09:46:44;;;;;;;4.07;0.82;;;;;;;-147.53;100.00;57128.34;10008187;29;20166;-87
2022/08/06 09:52:10;;;;;;;0.68;0.50;;;;;;;-147.53;100.00;57128.34;10017615;29;20045;-88
2022/08/06 09:57:14;;;;;;;1.30;0.43;;;;;;;-147.53;100.00;57128.34;10028773;29;20055;-86
2022/08/06 10:02:20;;;;;;;1.20;0.40;;;;;;;-147.53;100.00;57128.34;10008473;29;20053;-87
2022/08/06 10:07:33;;;;;;;0.40;0.40;;;;;;;-147.53;100.00;57128.34;9999110;29;20061;-90
2022/08/06 10:12:41;;;;;;;3.07;0.50;;;;;;;-147.53;100.00;57128.34;10014005;29;20053;-87
2022/08/06 10:17:45;;;;;;;1.67;0.52;;;;;;;-147.53;100.00;57128.34;10010455;29;20466;-87
2022/08/06 10:22:59;;;;;;;1.23;0.60;;;;;;;-147.53;100.00;57128.34;10012741;29;20130;-87
2022/08/06 10:28:01;;;;;;;1.50;0.43;;;;;;;-147.53;100.00;57128.34;10006733;29;20156;-86
2022/08/06 10:33:08;;;;;;;0.35;0.20;;;;;;;-147.53;100.00;57128.34;10012605;29;20547;-89
2022/08/06 10:38:26;;;;;;;2.35;0.55;;;;;;;-147.53;100.00;57128.34;10012213;29;20065;-87
2022/08/06 10:43:37;;;;;;;1.75;0.40;;;;;;;-147.53;100.00;57128.34;10020358;29;20045;-87
2022/08/06 10:48:47;;;;;;;1.65;0.50;;;;;;;-147.53;100.00;57128.34;10030510;29;20046;-86
2022/08/06 10:54:10;;;;;;;5.60;0.55;;;;;;;-147.53;100.00;57128.34;10058988;29;20076;-87
2022/08/06 10:59:25;;;;;;;0.65;0.40;;;;;;;-147.53;100.00;57128.34;10108804;29;20127;-89
2022/08/06 11:04:57;;;;;;;0.60;0.30;;;;;;;-147.53;100.00;57128.34;10130297;29;20041;-87
2022/08/06 11:10:26;;;;;;;3.70;0.40;;;;;;;-147.53;100.00;57128.34;10106765;29;20568;-86
2022/08/06 11:15:34;;;;;;;0.90;0.50;;;;;;;-147.53;100.00;57128.34;10112055;29;20048;-87
2022/08/06 11:20:42;;;;;;;2.42;0.40;;;;;;;-147.53;100.00;57128.34;10112746;29;20506;-87
2022/08/06 11:25:48;;;;;;;1.65;0.73;;;;;;;-147.53;100.00;57128.34;10113056;29;20044;-88
2022/08/06 11:30:53;;;;;;;2.08;0.50;;;;;;;-147.53;100.00;57128.34;10092325;29;20041;-86
2022/08/06 11:35:55;;;;;;;3.58;0.60;;;;;;;-147.53;100.00;57128.34;10090594;29;20127;-87
2022/08/06 11:41:07;;;;;;;2.13;1.00;;;;;;;-147.53;100.00;57128.34;10122845;29;20115;-85
2022/08/06 11:46:30;;;;;;;1.95;0.65;;;;;;;-147.53;100.00;57128.34;10105328;29;20044;-86
2022/08/06 11:51:58;;;;;;;6.93;0.82;;;;;;;-147.53;100.00;57128.34;10116392;29;20109;-87
2022/08/06 11:57:54;;;;;;;2.25;0.50;;;;;;;-147.53;100.00;57128.34;10102131;29;20127;-87
2022/08/06 12:03:39;;;;;;;1.77;0.52;;;;;;;-147.53;100.00;57128.34;10062825;29;20121;-87
2022/08/06 12:09:12;;;;;;;2.97;0.60;;;;;;;-147.53;100.00;57128.34;10111125;29;20048;-86
2022/08/06 12:14:40;;;;;;;2.28;0.60;;;;;;;-147.53;100.00;57128.34;10105838;29;20053;-86
2022/08/06 12:19:55;;;;;;;10.70;1.90;;;;;;;-147.53;100.00;57128.34;10122507;29;20048;-86
2022/08/06 12:25:07;;;;;;;2.55;0.80;;;;;;;-147.53;100.00;57128.34;10120619;29;20051;-85
2022/08/06 12:30:14;;;;;;;1.15;0.50;;;;;;;-147.53;100.00;57128.34;10107166;29;20332;-87
2022/08/06 12:36:25;;;;;;;2.78;0.70;;;;;;;-147.53;100.00;57128.34;10124674;29;20044;-87
2022/08/06 12:48:03;;;;;;;2.83;0.73;;;;;;;-147.53;100.00;57128.34;10099908;29;20036;-88
2022/08/06 12:54:12;;;;;;;3.88;0.90;;;;;;;-147.53;100.00;57128.34;10161644;29;20039;-87
2022/08/06 12:59:35;;;;;;;2.55;1.00;;;;;;;-147.53;100.00;57128.34;10153223;29;20198;-88
2022/08/06 13:05:25;;;;;;;4.35;1.25;;;;;;;-147.53;100.00;57128.34;10122753;29;20055;-87
2022/08/06 13:10:41;;;;;;;3.50;0.80;;;;;;;-147.53;100.00;57128.34;10167035;29;20048;-88
2022/08/06 13:16:20;;;;;;;2.42;0.85;;;;;;;-147.53;100.00;57128.34;10144719;29;20052;-88
2022/08/06 13:21:45;;;;;;;2.17;0.80;;;;;;;-147.53;100.00;57128.34;10107442;29;20131;-88
2022/08/06 13:27:09;;;;;;;1.13;0.80;;;;;;;-147.53;100.00;57128.34;10155033;29;20068;-87
2022/08/06 13:32:40;;;;;;;3.05;1.08;;;;;;;-147.53;100.00;57128.34;10152547;29;20389;-88
2022/08/06 13:37:56;;;;;;;4.22;1.20;;;;;;;-147.53;100.00;57128.34;10155145;29;20135;-89
2022/08/06 13:43:42;;;;;;;3.30;1.23;;;;;;;-147.53;100.00;57128.34;10153289;29;20055;-87
2022/08/06 13:49:14;;;;;;;6.15;1.20;;;;;;;-147.53;100.00;57128.34;10141053;29;20047;-87
2022/08/06 13:54:28;;;;;;;1.73;0.90;;;;;;;-147.53;100.00;57128.34;10161000;29;20434;-87
2022/08/06 14:00:06;;;;;;;;;;;;;;;-147.53;100.00;57128.34;10051317;29;20109;-87
2022/08/06 14:05:39;;;;;;;4.45;1.45;;;;;;;-147.53;100.00;57128.34;10044298;29;20262;-87
2022/08/06 14:10:53;;;;;;;4.30;1.33;;;;;;;-147.53;100.00;57128.34;10064156;29;20037;-89
2022/08/06 14:16:09;;;;;;;4.60;1.50;;;;;;;-147.53;100.00;57128.34;10079963;29;20576;-87
2022/08/06 14:21:27;;;;;;;3.17;1.70;;;;;;;-147.53;100.00;57128.34;10164530;29;20627;-89
2022/08/06 14:26:40;;;;;;;3.88;1.25;;;;;;;-147.53;100.00;57128.34;10140816;29;20115;-88
2022/08/06 14:31:50;;;;;;;4.57;1.30;;;;;;;-147.53;100.00;57128.34;10132894;29;20180;-88
2022/08/06 14:37:10;;;;;;;6.47;1.55;;;;;;;-147.53;100.00;57128.34;10168803;29;20131;-88
2022/08/06 14:47:50;;;;;;;3.90;1.50;;;;;;;-147.53;100.00;57128.34;10140173;29;20055;-88
2022/08/06 14:53:54;;;;;;;4.65;1.55;;;;;;;-147.53;100.00;57128.34;10141564;29;20408;-89
2022/08/06 15:00:14;;;;;;;5.53;1.90;;;;;;;-147.53;100.00;57128.34;10136904;29;20040;-89
2022/08/06 15:05:39;;;;;;;6.63;1.95;;;;;;;-147.53;100.00;57128.34;10060066;23;20050;-78
2022/08/06 15:11:01;;;;;;;4.03;1.80;;;;;;;-147.53;100.00;57128.34;10199107;29;20047;-82
2022/08/06 15:16:14;;;;;;;6.75;2.50;;;;;;;-147.53;100.00;57128.34;10233305;28;20070;-80
2022/08/06 15:21:36;;;;;;;6.20;2.90;;;;;;;-147.53;100.00;57128.34;10225755;28;20046;-80
2022/08/06 15:26:55;;;;;;;8.15;3.15;;;;;;;-147.53;100.00;57128.34;10211853;28;20047;-79
2022/08/06 15:31:57;;;;;;;7.25;2.83;;;;;;;-147.53;100.00;57128.34;10222301;28;20049;-80
2022/08/06 15:37:09;;;;;;;6.78;2.97;;;;;;;-147.53;100.00;57128.34;10228682;28;20058;-81
2022/08/06 15:42:31;;;;;;;6.40;3.00;;;;;;;-147.53;100.00;57128.34;10225493;28;20055;-83
2022/08/06 15:47:33;;;;;;;7.28;3.13;;;;;;;-147.53;100.00;57128.34;10240741;28;20086;-82
2022/08/06 15:52:46;;;;;;;7.65;3.25;;;;;;;-147.53;100.00;57128.34;10240392;28;20070;-81
2022/08/06 15:57:48;;;;;;;7.35;3.42;;;;;;;-147.53;100.00;57128.34;10217152;28;20039;-79
2022/08/06 16:03:11;;;;;;;6.65;2.92;;;;;;;-147.53;100.00;57128.34;10183544;29;20079;-79
2022/08/06 16:08:14;;;;;;;8.95;3.50;;;;;;;-147.53;100.00;57128.34;10200290;29;20048;-78
2022/08/06 16:13:36;;;;;;;10.20;3.90;;;;;;;-147.53;100.00;57128.34;10197182;29;20047;-78
2022/08/06 16:18:39;;;;;;;9.73;4.13;;;;;;;-147.53;100.00;57128.34;10204837;29;20047;-79
2022/08/06 16:23:52;;;;;;;8.10;4.00;;;;;;;-147.53;100.00;57128.34;10203290;29;20150;-78
2022/08/06 16:29:03;;;;;;;8.82;4.38;;;;;;;-147.53;100.00;57128.34;10201177;29;20055;-79
2022/08/06 16:34:07;;;;;;;7.82;4.80;;;;;;;-147.53;100.00;57128.34;10201235;29;20061;-79
2022/08/06 16:39:13;;;;;;;8.88;4.22;;;;;;;-147.53;100.00;57128.34;10216673;28;20043;-79
2022/08/06 16:44:35;;;;;;;7.75;3.83;;;;;;;-147.53;100.00;57128.34;10238532;28;20818;-80
2022/08/06 16:49:58;;;;;;;12.95;4.63;;;;;;;-147.53;100.00;57128.34;10227893;28;20051;-79
2022/08/06 16:55:19;;;;;;;9.30;4.32;;;;;;;-147.53;100.00;57128.34;10231417;28;20047;-82
2022/08/06 17:00:25;;;;;;;10.13;4.45;;;;;;;-147.53;100.00;57128.34;10242523;28;20114;-85
2022/08/06 17:05:47;;;;;;;8.55;4.65;;;;;;;-147.53;100.00;57128.34;10240956;28;20047;-83
2022/08/06 17:11:09;;;;;;;11.80;4.70;;;;;;;-147.53;100.00;57128.34;10250056;28;20708;-83
2022/08/06 17:16:31;;;;;;;9.85;4.65;;;;;;;-147.53;100.00;57128.34;10248394;28;20047;-83
2022/08/06 17:21:33;;;;;;;8.50;4.75;;;;;;;-147.53;100.00;57128.34;10225721;28;20050;-83
2022/08/06 17:26:55;;;;;;;9.18;5.07;;;;;;;-147.53;100.00;57128.34;10246115;28;20051;-82
2022/08/06 17:31:56;;;;;;;8.45;4.85;;;;;;;-147.53;100.00;57128.34;10243368;28;20054;-84
2022/08/06 17:36:59;;;;;;;8.85;5.25;;;;;;;-147.53;100.00;57128.34;10241901;28;20470;-84
2022/08/06 17:42:22;;;;;;;10.60;5.18;;;;;;;-147.53;100.00;57128.34;10244382;28;20051;-83
2022/08/06 17:47:27;;;;;;;9.00;5.15;;;;;;;-147.53;100.00;57128.34;10242565;28;20055;-84
2022/08/06 17:52:48;;;;;;;10.98;5.75;;;;;;;-147.53;100.00;57128.34;10245412;28;20043;-84
2022/08/06 17:57:50;;;;;;;10.88;5.82;;;;;;;-147.53;100.00;57128.34;10244652;28;20043;-79
2022/08/06 18:03:12;;;;;;;11.65;6.80;;;;;;;-147.53;100.00;57128.34;10249475;28;20111;-82
2022/08/06 18:08:24;;;;;;;10.70;6.00;;;;;;;-147.53;100.00;57128.34;10246232;28;20062;-81
2022/08/06 18:13:38;;;;;;;11.77;6.45;;;;;;;-147.53;100.00;57128.34;10233143;28;20134;-82
2022/08/06 18:18:56;;;;;;;10.55;6.28;;;;;;;-147.53;100.00;57128.34;10223560;28;20106;-83
2022/08/06 18:23:58;;;;;;;12.98;6.35;;;;;;;-147.53;100.00;57128.34;10247479;28;20063;-79
2022/08/06 18:29:03;;;;;;;13.10;6.28;;;;;;;-147.53;100.00;57128.34;10238530;28;20524;-81
2022/08/06 18:34:07;;;;;;;12.18;6.25;;;;;;;-147.53;100.00;57128.34;10241039;28;20137;-81
2022/08/06 18:39:19;;;;;;;14.73;7.40;;;;;;;-147.53;100.00;57128.34;10224209;28;20071;-81
2022/08/06 18:44:24;;;;;;;11.90;7.43;;;;;;;-147.53;100.00;57128.34;10221198;28;20569;-82
2022/08/06 18:49:28;;;;;;;11.63;6.47;;;;;;;-147.53;100.00;57128.34;10235528;28;20053;-80
2022/08/06 18:54:54;;;;;;;11.52;6.18;;;;;;;-147.53;100.00;57128.34;10241053;28;20139;-80
2022/08/06 18:59:59;;;;;;;;;;;;;;;-147.53;100.00;57128.34;10239869;28;20055;-82
2022/08/06 19:05:03;;;;;;;11.68;6.80;;;;;;;-147.53;100.00;57128.34;10242772;28;19999;-83
2022/08/06 19:10:07;;;;;;;12.82;6.80;;;;;;;-147.53;100.00;57128.34;10241316;28;20066;-81
2022/08/06 19:15:15;;;;;;;13.75;7.35;;;;;;;-147.53;100.00;57128.34;10241111;28;20062;-81
2022/08/06 19:20:25;;;;;;;14.75;7.07;;;;;;;-147.53;100.00;57128.34;10227207;28;20043;-82
2022/08/06 19:25:31;;;;;;;12.07;7.00;;;;;;;-147.53;100.00;57128.34;10223227;28;20074;-81
2022/08/06 19:30:53;;;;;;;13.02;7.32;;;;;;;-147.53;100.00;57128.34;10237004;28;20042;-81
2022/08/06 19:35:55;;;;;;;12.13;7.13;;;;;;;-147.53;100.00;57128.34;10230069;28;20099;-81
2022/08/06 19:41:07;;;;;;;12.10;6.30;;;;;;;-147.53;100.00;57128.34;10247900;28;20038;-82
2022/08/06 19:46:10;;;;;;;11.00;6.07;;;;;;;-147.53;100.00;57128.34;10252593;28;20053;-81
2022/08/06 19:51:33;;;;;;;12.48;6.63;;;;;;;-147.53;100.00;57128.34;10251287;28;20039;-82
2022/08/06 19:56:54;;;;;;;14.38;6.72;;;;;;;-147.53;100.00;57128.34;10234459;28;20083;-82
2022/08/06 20:01:57;;;;;;;13.10;7.80;;;;;;;-147.53;100.00;57128.34;10243089;28;20076;-81
2022/08/06 20:07:16;;;;;;;11.73;6.90;;;;;;;-147.53;100.00;57128.34;10228911;28;20542;-81
2022/08/06 20:12:26;;;;;;;12.65;7.32;;;;;;;-147.53;100.00;57128.34;10229753;28;20047;-82
2022/08/06 20:17:34;;;;;;;12.93;7.13;;;;;;;-147.53;100.00;57128.34;10224061;28;20867;-82
2022/08/06 20:22:50;;;;;;;12.45;7.70;;;;;;;-147.53;100.00;57128.34;10242937;28;20657;-82
2022/08/06 20:27:57;;;;;;;15.77;7.07;;;;;;;-147.53;100.00;57128.34;10212114;28;20103;-83
2022/08/06 20:33:20;;;;;;;12.95;7.20;;;;;;;-147.53;100.00;57128.34;10245380;28;20047;-82
2022/08/06 20:38:25;;;;;;;14.40;7.32;;;;;;;-147.53;100.00;57128.34;10227792;28;20340;-82
2022/08/06 20:43:41;;;;;;;12.60;7.22;;;;;;;-147.53;100.00;57128.34;10239872;28;20047;-83
2022/08/06 20:49:03;;;;;;;13.52;7.93;;;;;;;-147.53;100.00;57128.34;10233324;28;20055;-83
2022/08/06 20:54:10;;;;;;;13.55;7.78;;;;;;;-147.53;100.00;57128.34;10244520;28;20066;-83
2022/08/06 20:59:19;;;;;;;14.90;8.15;;;;;;;-147.53;100.00;57128.34;10195432;29;20043;-82
2022/08/06 21:04:21;;;;;;;17.73;9.35;;;;;;;-147.53;100.00;57128.34;10209274;29;20043;-82
2022/08/06 21:09:44;;;;;;;15.60;7.60;;;;;;;-147.53;100.00;57128.34;10224736;28;20047;-83
2022/08/06 21:14:49;;;;;;;14.43;8.35;;;;;;;-147.53;100.00;57128.34;10225833;28;20055;-83
2022/08/06 21:19:51;;;;;;;17.10;8.25;;;;;;;-147.53;100.00;57128.34;10226044;28;20053;-83
2022/08/06 21:25:11;;;;;;;13.73;8.57;;;;;;;-147.53;100.00;57128.34;10225571;28;20055;-84
2022/08/06 21:30:19;;;;;;;14.50;7.90;;;;;;;-147.53;100.00;57128.34;10224237;28;20076;-83
2022/08/06 21:35:31;;;;;;;15.38;8.40;;;;;;;-147.53;100.00;57128.34;10243309;28;20055;-83
2022/08/06 21:40:35;;;;;;;17.52;9.02;;;;;;;-147.53;100.00;57128.34;10242621;28;20069;-83
2022/08/06 21:45:38;;;;;;;15.00;9.02;;;;;;;-147.53;100.00;57128.34;10224865;28;20134;-84
2022/08/06 21:51:00;;;;;;;20.40;9.25;;;;;;;-147.53;100.00;57128.34;10240435;28;20054;-83
2022/08/06 21:56:03;;;;;;;19.55;9.45;;;;;;;-147.53;100.00;57128.34;10250129;28;20043;-83
2022/08/06 22:01:25;;;;;;;24.80;10.35;;;;;;;-147.53;100.00;57128.34;10230501;28;20075;-83
2022/08/06 22:06:47;;;;;;;16.88;10.10;;;;;;;-147.53;100.00;57128.34;10226526;28;20460;-83
2022/08/06 22:11:54;;;;;;;18.33;9.77;;;;;;;-147.53;100.00;57128.34;10242923;28;20129;-84
2022/08/06 22:17:17;;;;;;;22.92;10.82;;;;;;;-147.53;100.00;57128.34;10238632;28;20050;-85
2022/08/06 22:22:40;;;;;;;19.77;9.85;;;;;;;-147.53;100.00;57128.34;10245521;28;20035;-84
2022/08/06 22:27:42;;;;;;;17.35;9.68;;;;;;;-147.53;100.00;57128.34;10245621;28;20441;-83
2022/08/06 22:32:55;;;;;;;16.20;8.82;;;;;;;-147.53;100.00;57128.34;10225224;28;20826;-83
2022/08/06 22:38:03;;;;;;;18.25;9.38;;;;;;;-147.53;100.00;57128.34;10241471;28;20062;-83
2022/08/06 22:43:21;;;;;;;19.50;9.88;;;;;;;-147.53;100.00;57128.34;10242223;28;20039;-84
2022/08/06 22:48:43;;;;;;;29.00;11.13;;;;;;;-147.53;100.00;57128.34;10229658;28;20051;-83
2022/08/06 22:53:48;;;;;;;17.83;9.93;;;;;;;-147.53;100.00;57128.34;10246150;28;20130;-83
2022/08/06 22:59:10;;;;;;;16.98;10.35;;;;;;;-147.53;100.00;57128.34;10233503;28;20227;-83
2022/08/06 23:04:32;;;;;;;17.67;9.85;;;;;;;-147.53;100.00;57128.34;10229741;28;20090;-84
2022/08/06 23:09:35;;;;;;;23.27;10.32;;;;;;;-147.53;100.00;57128.34;10242910;28;20047;-83
2022/08/06 23:14:38;;;;;;;18.27;9.93;;;;;;;-147.53;100.00;57128.34;10232139;28;20044;-83
2022/08/06 23:19:42;;;;;;;17.13;9.18;;;;;;;-147.53;100.00;57128.34;10240832;28;20440;-84
2022/08/06 23:24:58;;;;;;;15.40;8.95;;;;;;;-147.53;100.00;57128.34;10243541;28;20043;-84
2022/08/06 23:30:20;;;;;;;17.60;9.23;;;;;;;-147.53;100.00;57128.34;10246443;28;20059;-84
2022/08/06 23:35:22;;;;;;;17.30;9.35;;;;;;;-147.53;100.00;57128.34;10245407;28;20040;-84
2022/08/06 23:40:38;;;;;;;19.08;9.57;;;;;;;-147.53;100.00;57128.34;10242551;28;20043;-83
2022/08/06 23:45:42;;;;;;;16.15;9.48;;;;;;;-147.53;100.00;57128.34;10205146;28;20087;-85
2022/08/06 23:50:48;;;;;;;19.00;10.45;;;;;;;-147.53;100.00;57128.34;10238548;28;20070;-84
2022/08/06 23:55:54;;;;;;;17.27;10.32;;;;;;;-147.53;100.00;57128.34;10241945;28;20120;-84
